Terminal Aerodrome Forecast
Issued by NWS

Home | Current Version | Previous Version | Text Only | Print | Product List | Glossary On
Versions: 1 2 3 4 5 6 7 8 9 10 11 12 13 14 15 16
899
FTUS43 KGRB 290520
TAFAUW
TAF
KAUW 290520Z 2906/3006 26007KT P6SM VCSH SCT060 BKN100
      TEMPO 2910/2912 BKN040
     FM291200 27010KT P6SM BKN025 OVC040
     FM291500 27015G25KT P6SM VCSH BKN020 OVC035
     FM300200 28010KT P6SM BKN015 OVC035=

USA.gov is the U.S. government's official web portal to all federal, state and local government web resources and services.